Focsani, Romania
Current Conditions -  °F | °C
As of 4:00 PM on Saturday 25 Oct 2014 (Local Time) from LRBC Reporting Station
Scattered Clouds Scattered Clouds  
Wind Chill: 29°   Ceiling: Unl
Heat Index: 37°   Visibility: 6mi
Dew Point: 27°   Wind: 14mph
Humidity: 65%   Direction: 350°N
Pressure: 30.42"   Gusts: NA
Location:  45.7°N, 27.18°E
Report Text: LRBC 251300Z 35012KT 9999 SCT023 03/M03 Q1030
Loading
Personal Weather Stations






























Interactive Weather Map
Tropical Storm Tracking
New forecast layout! Learn more

10-Day Weather Forecast

Advertisements
Track Severe Weather on mobile